地図

経路データ

SID SEASON NUMBER BASIN SUBBASIN NAME ISO_TIME NATURE LAT LON WMO_WIND WMO_PRES WMO_AGENCY TRACK_TYPE DIST2LAND LANDFALL IFLAG USA_AGENCY USA_ATCF_ID USA_LAT USA_LON USA_RECORD USA_STATUS USA_WIND USA_PRES USA_SSHS USA_R34_NE USA_R34_SE USA_R34_SW USA_R34_NW USA_R50_NE USA_R50_SE USA_R50_SW USA_R50_NW USA_R64_NE USA_R64_SE USA_R64_SW USA_R64_NW USA_POCI USA_ROCI USA_RMW USA_EYE TOKYO_LAT TOKYO_LON TOKYO_GRADE TOKYO_WIND TOKYO_PRES TOKYO_R50_DIR TOKYO_R50_LONG TOKYO_R50_SHORT TOKYO_R30_DIR TOKYO_R30_LONG TOKYO_R30_SHORT TOKYO_LAND CMA_LAT CMA_LON CMA_CAT CMA_WIND CMA_PRES HKO_LAT HKO_LON HKO_CAT HKO_WIND HKO_PRES NEWDELHI_LAT NEWDELHI_LON NEWDELHI_GRADE NEWDELHI_WIND NEWDELHI_PRES NEWDELHI_CI NEWDELHI_DP NEWDELHI_POCI REUNION_LAT REUNION_LON REUNION_TYPE REUNION_WIND REUNION_PRES REUNION_TNUM REUNION_CI REUNION_RMW REUNION_R34_NE REUNION_R34_SE REUNION_R34_SW REUNION_R34_NW REUNION_R50_NE REUNION_R50_SE REUNION_R50_SW REUNION_R50_NW REUNION_R64_NE REUNION_R64_SE REUNION_R64_SW REUNION_R64_NW BOM_LAT BOM_LON BOM_TYPE BOM_WIND BOM_PRES BOM_TNUM BOM_CI BOM_RMW BOM_R34_NE BOM_R34_SE BOM_R34_SW BOM_R34_NW BOM_R50_NE BOM_R50_SE BOM_R50_SW BOM_R50_NW BOM_R64_NE BOM_R64_SE BOM_R64_SW BOM_R64_NW BOM_ROCI BOM_POCI BOM_EYE BOM_POS_METHOD BOM_PRES_METHOD NADI_LAT NADI_LON NADI_CAT NADI_WIND NADI_PRES WELLINGTON_LAT WELLINGTON_LON WELLINGTON_WIND WELLINGTON_PRES DS824_LAT DS824_LON DS824_STAGE DS824_WIND DS824_PRES TD9636_LAT TD9636_LON TD9636_STAGE TD9636_WIND TD9636_PRES TD9635_LAT TD9635_LON TD9635_WIND TD9635_PRES TD9635_ROCI NEUMANN_LAT NEUMANN_LON NEUMANN_CLASS NEUMANN_WIND NEUMANN_PRES MLC_LAT MLC_LON MLC_CLASS MLC_WIND MLC_PRES USA_GUST BOM_GUST BOM_GUST_PER REUNION_GUST REUNION_GUST_PER USA_SEAHGT USA_SEARAD_NE USA_SEARAD_SE USA_SEARAD_SW USA_SEARAD_NW STORM_SPEED STORM_DIR
1955038S12095 1955 9 SI WA NOT_NAMED 1955-02-07 06:00:00 TS -11.7000 94.6000 bom main 1209 1209 O_____O__OO___ jtwc_sh SH121955 -11.7000 94.6000 -1 -11.7000 94.6000 -11.7000 94.6000 TC 25 -11.7000 94.6000 7 3 202
1955038S12095 1955 9 SI WA NOT_NAMED 1955-02-07 09:00:00 TS -11.8508 94.5501 main 1225 1225 P_____P__PP___ SH121955 -11.8500 94.5500 -1 -11.8500 94.5500 -11.8500 94.5500 TC 25 -11.8532 94.5502 7 3 198
1955038S12095 1955 9 SI WA NOT_NAMED 1955-02-07 12:00:00 TS -12.0013 94.5001 bom main 1241 1241 O_____O__OP___ jtwc_sh SH121955 -12.0000 94.5000 -1 -12.0000 94.5000 -12.0000 94.5000 TC 25 -12.0051 94.5002 7 3 198
1955038S12095 1955 9 SI WA NOT_NAMED 1955-02-07 15:00:00 TS -12.1511 94.4500 main 1257 1257 P_____P__PP___ SH121955 -12.1500 94.4500 -1 -12.1500 94.4500 -12.1500 94.4500 TC 30 -12.1544 94.4502 7 3 198
1955038S12095 1955 9 SI WA NOT_NAMED 1955-02-07 18:00:00 TS -12.3000 94.4000 bom main 1273 1273 O_____O__OO___ jtwc_sh SH121955 -12.3000 94.4000 -1 -12.3000 94.4000 -12.3000 94.4000 TC 35 -12.3000 94.4000 2 3 196
1955038S12095 1955 9 SI WA NOT_NAMED 1955-02-07 21:00:00 TS -12.4427 94.3604 main 1281 1281 P_____P__PP___ SH121955 -12.4425 94.3650 -1 -12.4425 94.3650 -12.4425 94.3650 TC 35 -12.4433 94.3466 2 3 199
1955038S12095 1955 9 SI WA NOT_NAMED 1955-02-08 00:00:00 TS -12.5993 94.2936 bom main 1304 1304 O_____O__OP___ jtwc_sh SH121955 -12.6000 94.3000 -1 -12.6000 94.3000 -12.6000 94.3000 TC 35 -12.5973 94.2745 2 4 209
1955038S12095 1955 9 SI WA NOT_NAMED 1955-02-08 03:00:00 TS -12.7775 94.1763 main 1328 1328 P_____P__PP___ SH121955 -12.7775 94.1799 -1 -12.7775 94.1799 -12.7775 94.1799 TC 35 -12.7776 94.1652 2 5 216
1955038S12095 1955 9 SI WA NOT_NAMED 1955-02-08 06:00:00 TS -13.0000 94.0000 bom main 1359 1359 O_____O__OO___ jtwc_sh SH121955 -13.0000 94.0000 -1 -13.0000 94.0000 -13.0000 94.0000 TC 35 -13.0000 94.0000 2 6 218
1955038S12095 1955 9 SI WA NOT_NAMED 1955-02-08 09:00:00 TS -13.2816 93.7784 main 1399 1399 P_____P__PP___ SH121955 -13.2775 93.7799 -1 -13.2775 93.7799 -13.2775 93.7799 TC 35 -13.2941 93.7739 2 8 219
1955038S12095 1955 9 SI WA NOT_NAMED 1955-02-08 12:00:00 TS -13.6069 93.4976 bom main 1445 1445 O_____O__OP___ jtwc_sh SH121955 -13.6000 93.5000 -1 -13.6000 93.5000 -13.6000 93.5000 TC 35 -13.6275 93.4902 2 9 221
1955038S12095 1955 9 SI WA NOT_NAMED 1955-02-08 15:00:00 TS -13.9611 93.1697 main 1500 1500 P_____P__PP___ SH121955 -13.9575 93.1725 -1 -13.9575 93.1725 -13.9575 93.1725 TC 35 -13.9721 93.1614 2 10 224
1955038S12095 1955 9 SI WA NOT_NAMED 1955-02-08 18:00:00 TS -14.3000 92.8000 bom main 1554 1554 O_____O__OO___ jtwc_sh SH121955 -14.3000 92.8000 -1 -14.3000 92.8000 -14.3000 92.8000 TC 35 -14.3000 92.8000 2 10 231
1955038S12095 1955 9 SI WA NOT_NAMED 1955-02-08 21:00:00 TS -14.5656 92.4116 main 1608 1608 P_____P__PP___ SH121955 -14.5650 92.4074 -1 -14.5650 92.4074 -14.5650 92.4074 TC 35 -14.5676 92.4244 2 9 237
1955038S12095 1955 9 SI WA NOT_NAMED 1955-02-09 00:00:00 TS -14.8038 92.0055 bom main 1651 1651 O_____O__OP___ jtwc_sh SH121955 -14.8000 92.0000 -1 -14.8000 92.0000 -14.8000 92.0000 TC 35 -14.8151 92.0221 2 9 239
1955038S12095 1955 9 SI WA NOT_NAMED 1955-02-09 03:00:00 TS -15.0456 91.5965 main 1691 1691 P_____P__PP___ SH121955 -15.0425 91.5924 -1 -15.0425 91.5924 -15.0425 91.5924 TC 35 -15.0550 91.6087 2 9 237
1955038S12095 1955 9 SI WA NOT_NAMED 1955-02-09 06:00:00 TS -15.3000 91.2000 bom main 1742 1742 O_____O__OO___ jtwc_sh SH121955 -15.3000 91.2000 -1 -15.3000 91.2000 -15.3000 91.2000 TC 35 -15.3000 91.2000 2 9 233
1955038S12095 1955 9 SI WA NOT_NAMED 1955-02-09 09:00:00 TS -15.5928 90.8438 main 1792 1792 P_____P__PP___ SH121955 -15.5999 90.8499 -1 -15.5999 90.8499 -15.5999 90.8499 TC 30 -15.5715 90.8256 2 9 229
1955038S12095 1955 9 SI WA NOT_NAMED 1955-02-09 12:00:00 TS -15.8874 90.4893 bom main 1838 1838 O_____O__OP___ jtwc_sh SH121955 -15.9000 90.5000 -1 -15.9000 90.5000 -15.9000 90.5000 TC 25 -15.8495 90.4571 2 9 232
1955038S12095 1955 9 SI WA NOT_NAMED 1955-02-09 15:00:00 TS -16.1500 90.1018 main 1888 1888 P_____P__PP___ SH121955 -16.1575 90.1074 -1 -16.1575 90.1074 -16.1575 90.1074 TC 25 -16.1277 90.0850 2 9 236
1955038S12095 1955 9 SI MM NOT_NAMED 1955-02-09 18:00:00 TS -16.4000 89.7000 bom main 1930 1930 O_____O__OO___ jtwc_sh SH121955 -16.4000 89.7000 -1 -16.4000 89.7000 -16.4000 89.7000 TC 25 -16.4000 89.7000 7 9 237
1955038S12095 1955 9 SI MM NOT_NAMED 1955-02-09 21:00:00 TS -16.6528 89.3043 main 1981 1981 P_____P__PP___ SH121955 -16.6499 89.3074 -1 -16.6499 89.3074 -16.6499 89.3074 TC 25 -16.6615 89.2952 7 9 237
1955038S12095 1955 9 SI MM NOT_NAMED 1955-02-10 00:00:00 TS -16.9033 88.8934 bom main 2024 2024 O_____O__OP___ jtwc_sh SH121955 -16.9000 88.9000 -1 -16.9000 88.9000 -16.9000 88.9000 TC 25 -16.9134 88.8734 7 10 238
1955038S12095 1955 9 SI MM NOT_NAMED 1955-02-10 03:00:00 TS -17.1523 88.4552 main 2075 2075 P_____P__PP___ SH121955 -17.1502 88.4603 -1 -17.1502 88.4603 -17.1502 88.4603 TC 25 -17.1586 88.4399 7 10 240
1955038S12095 1955 9 SI MM NOT_NAMED 1955-02-10 06:00:00 TS -17.4000 88.0000 bom main 2124 O_____O__OO___ jtwc_sh SH121955 -17.4000 88.0000 -1 -17.4000 88.0000 -17.4000 88.0000 TC 25 -17.4000 88.0000 7 10 240

IBTrACS Databaseについて

本データベースは、米国NOAAが公開する1842年以降の世界の熱帯低気圧のベストトラックデータアーカイブInternational Best Track Archive for Climate Stewardship (IBTrACS)を、ウェブで閲覧しやすい形式に変換したものです。

最終更新日:2021-10-19